createdAt,value
2019-03-31T00:03:01.559Z,63.21
2019-03-31T00:08:07.354Z,63.13
2019-03-31T00:13:13.626Z,64.36
2019-03-31T00:18:19.550Z,64.76
2019-03-31T00:23:25.347Z,64.86
2019-03-31T00:28:31.133Z,65.41
2019-03-31T00:33:37.097Z,65.78
2019-03-31T00:38:43.357Z,66.21
2019-03-31T00:43:50.153Z,66.10
2019-03-31T00:48:55.978Z,66.67
2019-03-31T00:54:01.695Z,66.91
2019-03-31T00:59:08.041Z,66.82
2019-03-31T01:04:16.757Z,66.92
2019-03-31T01:09:26.563Z,67.12
2019-03-31T01:14:32.655Z,67.34
2019-03-31T01:19:38.692Z,67.65
2019-03-31T01:24:44.590Z,68.25
2019-03-31T01:29:50.486Z,68.68
2019-03-31T01:34:56.559Z,69.33
2019-03-31T01:40:02.478Z,69.31
2019-03-31T01:45:09.972Z,69.48
2019-03-31T01:50:17.921Z,70.08
2019-03-31T01:55:24.168Z,70.21
2019-03-31T02:00:50.491Z,70.14
2019-03-31T02:05:56.390Z,70.10
2019-03-31T02:11:03.016Z,70.37
2019-03-31T02:16:09.227Z,70.40
2019-03-31T02:21:15.222Z,70.75
2019-03-31T02:26:21.471Z,71.74
2019-03-31T02:31:28.189Z,71.50
2019-03-31T02:36:35.658Z,71.65
2019-03-31T02:41:41.568Z,71.65
2019-03-31T02:46:47.442Z,72.46
2019-03-31T02:51:53.086Z,73.20
2019-03-31T02:56:59.090Z,73.69
2019-03-31T03:02:05.381Z,73.97
2019-03-31T03:07:12.999Z,73.61
2019-03-31T03:12:21.758Z,73.89
2019-03-31T03:17:27.964Z,73.92
2019-03-31T03:22:34.066Z,74.41
2019-03-31T03:27:40.322Z,74.18
2019-03-31T03:33:12.662Z,73.95
2019-03-31T03:37:55.575Z,74.62
2019-03-31T03:43:01.904Z,77.30
2019-03-31T03:48:07.699Z,77.21
2019-03-31T03:53:13.477Z,77.07
2019-03-31T03:58:20.069Z,77.49
2019-03-31T04:03:30.436Z,77.32
2019-03-31T04:08:35.936Z,77.04
2019-03-31T04:13:42.014Z,77.12
2019-03-31T04:18:48.283Z,76.69
2019-03-31T04:23:54.391Z,76.77
2019-03-31T04:29:00.487Z,76.97
2019-03-31T04:34:06.917Z,77.27
2019-03-31T04:39:12.597Z,77.59
2019-03-31T04:44:18.388Z,77.65
2019-03-31T04:49:24.195Z,77.60
2019-03-31T04:54:29.984Z,77.65
2019-03-31T04:59:35.814Z,78.25
2019-03-31T05:04:41.888Z,78.51
2019-03-31T05:09:47.583Z,78.49
2019-03-31T05:14:53.769Z,78.75
2019-03-31T05:20:00.861Z,79.42
2019-03-31T05:25:07.020Z,79.55
2019-03-31T05:30:13.225Z,79.99
2019-03-31T05:35:19.733Z,80.35
2019-03-31T05:40:25.420Z,80.12
2019-03-31T05:45:31.120Z,80.78
2019-03-31T05:50:36.814Z,80.34
2019-03-31T05:55:42.949Z,80.44
2019-03-31T06:00:52.211Z,80.76
2019-03-31T06:05:58.170Z,80.53
2019-03-31T06:11:03.966Z,80.64
2019-03-31T06:16:09.754Z,80.64
2019-03-31T06:21:15.484Z,80.54
2019-03-31T06:26:21.582Z,81.66
2019-03-31T06:31:27.638Z,82.35
2019-03-31T06:36:35.429Z,81.79
2019-03-31T06:41:42.471Z,80.82
2019-03-31T06:46:48.166Z,80.38
2019-03-31T06:51:53.850Z,80.65
2019-03-31T06:56:59.761Z,80.55
2019-03-31T07:02:05.658Z,79.41
2019-03-31T07:07:11.376Z,79.94
2019-03-31T07:12:17.578Z,79.07
2019-03-31T07:17:23.295Z,78.60
2019-03-31T07:22:28.977Z,77.49
2019-03-31T07:27:35.183Z,76.93
2019-03-31T07:32:41.307Z,75.72
2019-03-31T07:37:48.047Z,75.90
2019-03-31T07:42:54.210Z,75.86
2019-03-31T07:47:59.955Z,73.03
2019-03-31T07:53:06.052Z,72.52
2019-03-31T07:58:11.829Z,72.54
2019-03-31T08:03:18.196Z,72.49
2019-03-31T08:08:24.335Z,72.17
2019-03-31T08:13:30.160Z,72.34
2019-03-31T08:18:36.358Z,72.56
2019-03-31T08:23:43.176Z,70.34
2019-03-31T08:28:48.969Z,69.11
2019-03-31T08:33:55.272Z,69.74
2019-03-31T08:39:01.347Z,69.67
2019-03-31T08:44:09.311Z,69.35
2019-03-31T08:49:15.214Z,68.44
2019-03-31T08:54:21.127Z,68.93
2019-03-31T08:59:27.847Z,69.52
2019-03-31T09:04:33.548Z,70.68
2019-03-31T09:09:39.661Z,71.28
2019-03-31T09:14:45.493Z,72.11
2019-03-31T09:19:51.676Z,71.99
2019-03-31T09:24:57.451Z,71.44
2019-03-31T09:30:03.235Z,71.49
2019-03-31T09:35:10.136Z,72.07
2019-03-31T09:40:16.247Z,72.27
2019-03-31T09:45:22.525Z,71.31
2019-03-31T09:50:28.317Z,70.54
2019-03-31T09:55:34.663Z,72.30
2019-03-31T10:00:50.709Z,72.23
2019-03-31T10:06:09.920Z,72.35
2019-03-31T10:11:05.493Z,72.96
2019-03-31T10:16:11.663Z,73.04
2019-03-31T10:21:17.501Z,73.68
2019-03-31T10:26:31.865Z,73.72
2019-03-31T10:31:31.199Z,71.52
2019-03-31T10:36:44.412Z,71.28
2019-03-31T10:41:44.872Z,72.75
2019-03-31T10:46:50.973Z,71.83
2019-03-31T10:51:56.791Z,71.66
2019-03-31T10:57:03.044Z,70.50
2019-03-31T11:02:09.222Z,70.95
2019-03-31T11:07:15.322Z,72.37
2019-03-31T11:12:21.112Z,70.79
2019-03-31T11:17:26.904Z,71.70
2019-03-31T11:22:55.666Z,71.84
2019-03-31T11:28:01.555Z,70.40
2019-03-31T11:33:07.942Z,71.59
2019-03-31T11:38:14.232Z,72.21
2019-03-31T11:43:20.113Z,74.06
2019-03-31T11:48:25.887Z,75.16
2019-03-31T11:53:32.201Z,74.83
2019-03-31T11:58:40.977Z,74.21
2019-03-31T12:03:46.845Z,74.05
2019-03-31T12:08:52.681Z,74.06
2019-03-31T12:13:59.664Z,74.81
2019-03-31T12:19:05.835Z,74.82
2019-03-31T12:24:11.802Z,75.23
2019-03-31T12:29:17.991Z,75.54
2019-03-31T12:34:25.620Z,75.49
2019-03-31T12:39:31.655Z,75.90
2019-03-31T12:44:37.553Z,75.20
2019-03-31T12:49:43.440Z,74.71
2019-03-31T12:54:49.231Z,74.10
2019-03-31T12:59:55.698Z,74.61
2019-03-31T13:05:01.620Z,74.51
2019-03-31T13:10:07.739Z,76.16
2019-03-31T13:15:14.154Z,75.69
2019-03-31T13:20:19.955Z,75.70
2019-03-31T13:25:26.827Z,74.34
2019-03-31T13:30:32.618Z,75.69
2019-03-31T13:35:38.540Z,74.75
2019-03-31T13:40:45.168Z,73.01
2019-03-31T13:45:50.959Z,74.29
2019-03-31T13:50:56.840Z,74.88
2019-03-31T13:56:03.207Z,75.35
2019-03-31T14:01:11.810Z,76.07
2019-03-31T14:06:18.113Z,75.23
2019-03-31T14:11:25.076Z,74.92
2019-03-31T14:16:30.896Z,71.26
2019-03-31T14:21:40.109Z,72.32
2019-03-31T14:26:47.696Z,70.83
2019-03-31T14:31:53.629Z,72.23
2019-03-31T14:36:59.893Z,72.05
2019-03-31T14:42:05.777Z,72.06
2019-03-31T14:47:12.046Z,72.13
2019-03-31T14:52:27.219Z,72.75
2019-03-31T14:57:25.752Z,72.64
2019-03-31T15:02:31.518Z,72.06
2019-03-31T15:07:37.277Z,72.11
2019-03-31T15:12:44.333Z,71.98
2019-03-31T15:17:50.981Z,71.32
2019-03-31T15:22:57.124Z,70.87
2019-03-31T15:28:03.742Z,70.76
2019-03-31T15:33:09.869Z,70.97
2019-03-31T15:38:16.113Z,70.04
2019-03-31T15:43:22.029Z,69.69
2019-03-31T15:48:27.870Z,70.50
2019-03-31T15:53:34.390Z,70.13
2019-03-31T15:58:40.199Z,70.69
2019-03-31T16:03:45.975Z,70.94
2019-03-31T16:08:51.218Z,70.64
2019-03-31T16:13:56.532Z,71.06
2019-03-31T16:19:03.973Z,71.49
2019-03-31T16:24:09.357Z,71.22
2019-03-31T16:29:14.967Z,71.66
2019-03-31T16:34:20.619Z,71.78
2019-03-31T16:39:36.886Z,73.02
2019-03-31T16:44:33.366Z,73.56
2019-03-31T16:49:38.913Z,73.86
2019-03-31T16:54:44.223Z,74.07
2019-03-31T16:59:50.184Z,73.76
2019-03-31T17:04:55.444Z,73.57
2019-03-31T17:10:01.227Z,72.95
2019-03-31T17:15:08.032Z,72.76
2019-03-31T17:20:13.492Z,73.12
2019-03-31T17:25:18.731Z,73.16
2019-03-31T17:30:24.331Z,73.60
2019-03-31T17:35:29.569Z,73.17
2019-03-31T17:40:35.181Z,73.40
2019-03-31T17:45:40.718Z,73.41
2019-03-31T17:50:47.520Z,73.29
2019-03-31T17:55:53.047Z,73.48
2019-03-31T18:00:58.286Z,73.54
2019-03-31T18:06:03.531Z,74.01
2019-03-31T18:11:08.766Z,73.69
2019-03-31T18:16:14.408Z,73.39
2019-03-31T18:21:19.665Z,73.59
2019-03-31T18:26:25.989Z,73.70
2019-03-31T18:31:31.229Z,74.57
2019-03-31T18:36:37.339Z,74.54
2019-03-31T18:41:43.008Z,74.38
2019-03-31T18:46:48.179Z,75.93
2019-03-31T18:51:53.464Z,76.17
2019-03-31T18:57:10.950Z,75.93
2019-03-31T19:02:45.624Z,76.23
2019-03-31T19:08:18.884Z,75.43
2019-03-31T19:13:37.540Z,73.97
2019-03-31T19:18:58.474Z,73.92
2019-03-31T19:24:18.473Z,73.84
2019-03-31T19:29:45.421Z,74.13
2019-03-31T19:35:09.716Z,74.66
2019-03-31T19:40:26.666Z,74.44
2019-03-31T19:45:50.940Z,74.26
2019-03-31T19:51:21.604Z,74.06
2019-03-31T19:56:47.499Z,73.86
2019-03-31T20:02:13.010Z,74.10
2019-03-31T20:07:46.485Z,74.61
2019-03-31T20:13:11.121Z,74.92
2019-03-31T20:18:41.979Z,75.09
2019-03-31T20:24:09.281Z,75.11
2019-03-31T20:29:39.328Z,75.21
2019-03-31T20:35:05.428Z,75.14
2019-03-31T20:40:17.644Z,75.07
2019-03-31T20:45:22.814Z,75.13
2019-03-31T20:50:28.063Z,74.86
2019-03-31T20:55:33.681Z,75.07
2019-03-31T21:00:39.740Z,75.25
2019-03-31T21:05:45.336Z,74.63
2019-03-31T21:10:50.871Z,74.92
2019-03-31T21:15:57.493Z,75.18
2019-03-31T21:21:02.686Z,75.08
2019-03-31T21:26:07.861Z,75.56
2019-03-31T21:31:13.035Z,75.74
2019-03-31T21:36:18.304Z,75.97
2019-03-31T21:41:23.725Z,75.58
2019-03-31T21:46:29.932Z,74.61
2019-03-31T21:51:36.575Z,73.81
2019-03-31T21:56:41.736Z,74.00
2019-03-31T22:01:46.885Z,73.82
2019-03-31T22:06:52.037Z,74.95
2019-03-31T22:11:57.462Z,75.64
2019-03-31T22:17:02.733Z,75.69
2019-03-31T22:22:09.577Z,75.86
2019-03-31T22:27:14.797Z,74.75
2019-03-31T22:32:20.485Z,74.47
2019-03-31T22:37:26.127Z,73.42
2019-03-31T22:42:31.914Z,72.45
2019-03-31T22:47:37.806Z,72.03
2019-03-31T22:52:43.670Z,72.72
2019-03-31T22:57:49.375Z,73.81
2019-03-31T23:02:54.531Z,72.64
2019-03-31T23:07:59.613Z,72.73
2019-03-31T23:13:04.765Z,71.93
2019-03-31T23:18:10.214Z,72.37
2019-03-31T23:23:16.510Z,71.47
2019-03-31T23:28:21.688Z,70.00
2019-03-31T23:33:28.047Z,69.69
2019-03-31T23:38:33.513Z,69.16
2019-03-31T23:43:38.663Z,70.76
2019-03-31T23:48:44.074Z,71.02
2019-03-31T23:53:49.217Z,71.91
2019-03-31T23:58:54.501Z,70.23
